sensor_id;sensor_type;location;lat;lon;timestamp;P1;durP1;ratioP1;P2;durP2;ratioP2
2558;SDS011;1289;53.488;10.006;2022-08-27T00:01:55;16.07;;;11.60;;
2558;SDS011;1289;53.488;10.006;2022-08-27T00:04:22;14.60;;;11.00;;
2558;SDS011;1289;53.488;10.006;2022-08-27T00:06:48;14.23;;;10.63;;
2558;SDS011;1289;53.488;10.006;2022-08-27T00:09:15;15.73;;;12.13;;
2558;SDS011;1289;53.488;10.006;2022-08-27T00:11:43;15.40;;;13.17;;
2558;SDS011;1289;53.488;10.006;2022-08-27T00:14:10;18.20;;;11.93;;
2558;SDS011;1289;53.488;10.006;2022-08-27T00:16:37;20.43;;;12.23;;
2558;SDS011;1289;53.488;10.006;2022-08-27T00:19:04;20.87;;;11.20;;
2558;SDS011;1289;53.488;10.006;2022-08-27T00:21:31;22.63;;;11.13;;
2558;SDS011;1289;53.488;10.006;2022-08-27T00:23:58;14.53;;;11.77;;
2558;SDS011;1289;53.488;10.006;2022-08-27T00:26:24;15.80;;;10.90;;
2558;SDS011;1289;53.488;10.006;2022-08-27T00:28:53;18.07;;;11.83;;
2558;SDS011;1289;53.488;10.006;2022-08-27T00:31:19;16.60;;;10.10;;
2558;SDS011;1289;53.488;10.006;2022-08-27T00:33:46;15.80;;;10.80;;
2558;SDS011;1289;53.488;10.006;2022-08-27T00:36:13;14.70;;;11.00;;
2558;SDS011;1289;53.488;10.006;2022-08-27T00:38:40;12.90;;;10.07;;
2558;SDS011;1289;53.488;10.006;2022-08-27T00:41:08;14.70;;;10.97;;
2558;SDS011;1289;53.488;10.006;2022-08-27T00:43:42;18.00;;;11.67;;
2558;SDS011;1289;53.488;10.006;2022-08-27T00:46:14;13.43;;;9.80;;
2558;SDS011;1289;53.488;10.006;2022-08-27T00:48:43;13.80;;;10.33;;
2558;SDS011;1289;53.488;10.006;2022-08-27T00:51:10;16.77;;;10.30;;
2558;SDS011;1289;53.488;10.006;2022-08-27T00:53:37;15.13;;;11.07;;
2558;SDS011;1289;53.488;10.006;2022-08-27T00:56:06;16.30;;;11.60;;
2558;SDS011;1289;53.488;10.006;2022-08-27T00:58:35;39.17;;;12.47;;
2558;SDS011;1289;53.488;10.006;2022-08-27T01:01:04;14.33;;;11.37;;
2558;SDS011;1289;53.488;10.006;2022-08-27T01:03:35;15.83;;;11.70;;
2558;SDS011;1289;53.488;10.006;2022-08-27T01:06:02;15.67;;;11.87;;
2558;SDS011;1289;53.488;10.006;2022-08-27T01:08:31;24.30;;;13.03;;
2558;SDS011;1289;53.488;10.006;2022-08-27T01:10:59;15.80;;;11.40;;
2558;SDS011;1289;53.488;10.006;2022-08-27T01:13:27;20.30;;;10.83;;
2558;SDS011;1289;53.488;10.006;2022-08-27T01:15:55;15.67;;;11.83;;
2558;SDS011;1289;53.488;10.006;2022-08-27T01:18:23;14.93;;;10.57;;
2558;SDS011;1289;53.488;10.006;2022-08-27T01:20:56;15.10;;;11.10;;
2558;SDS011;1289;53.488;10.006;2022-08-27T01:23:26;16.43;;;12.03;;
2558;SDS011;1289;53.488;10.006;2022-08-27T01:25:59;14.77;;;10.83;;
2558;SDS011;1289;53.488;10.006;2022-08-27T01:28:26;14.57;;;11.30;;
2558;SDS011;1289;53.488;10.006;2022-08-27T01:30:55;17.00;;;11.23;;
2558;SDS011;1289;53.488;10.006;2022-08-27T01:33:21;19.23;;;10.57;;
2558;SDS011;1289;53.488;10.006;2022-08-27T01:35:49;13.10;;;9.70;;
2558;SDS011;1289;53.488;10.006;2022-08-27T01:38:17;14.10;;;10.90;;
2558;SDS011;1289;53.488;10.006;2022-08-27T01:40:45;15.50;;;11.60;;
2558;SDS011;1289;53.488;10.006;2022-08-27T01:43:12;15.23;;;11.13;;
2558;SDS011;1289;53.488;10.006;2022-08-27T01:45:43;13.90;;;10.97;;
2558;SDS011;1289;53.488;10.006;2022-08-27T01:48:12;18.97;;;12.27;;
2558;SDS011;1289;53.488;10.006;2022-08-27T01:50:39;17.90;;;10.90;;
2558;SDS011;1289;53.488;10.006;2022-08-27T01:53:08;19.50;;;11.47;;
2558;SDS011;1289;53.488;10.006;2022-08-27T01:55:36;14.37;;;11.53;;
2558;SDS011;1289;53.488;10.006;2022-08-27T01:58:03;15.60;;;10.97;;
2558;SDS011;1289;53.488;10.006;2022-08-27T02:00:32;17.90;;;10.37;;
2558;SDS011;1289;53.488;10.006;2022-08-27T02:03:01;21.63;;;12.90;;
2558;SDS011;1289;53.488;10.006;2022-08-27T02:05:28;15.77;;;11.93;;
2558;SDS011;1289;53.488;10.006;2022-08-27T02:07:55;22.30;;;12.70;;
2558;SDS011;1289;53.488;10.006;2022-08-27T02:10:23;16.13;;;12.20;;
2558;SDS011;1289;53.488;10.006;2022-08-27T02:12:51;18.50;;;12.20;;
2558;SDS011;1289;53.488;10.006;2022-08-27T02:15:18;21.80;;;12.63;;
2558;SDS011;1289;53.488;10.006;2022-08-27T02:17:46;16.10;;;12.40;;
2558;SDS011;1289;53.488;10.006;2022-08-27T02:20:13;15.73;;;12.00;;
2558;SDS011;1289;53.488;10.006;2022-08-27T02:22:40;19.60;;;12.63;;
2558;SDS011;1289;53.488;10.006;2022-08-27T02:25:07;20.20;;;13.83;;
2558;SDS011;1289;53.488;10.006;2022-08-27T02:27:36;20.93;;;12.80;;
2558;SDS011;1289;53.488;10.006;2022-08-27T02:30:04;16.63;;;11.20;;
2558;SDS011;1289;53.488;10.006;2022-08-27T02:32:32;18.57;;;13.10;;
2558;SDS011;1289;53.488;10.006;2022-08-27T02:35:00;21.67;;;12.97;;
2558;SDS011;1289;53.488;10.006;2022-08-27T02:37:28;15.70;;;11.50;;
2558;SDS011;1289;53.488;10.006;2022-08-27T02:39:55;15.00;;;11.70;;
2558;SDS011;1289;53.488;10.006;2022-08-27T02:42:21;18.70;;;11.63;;
2558;SDS011;1289;53.488;10.006;2022-08-27T02:44:48;14.47;;;12.13;;
2558;SDS011;1289;53.488;10.006;2022-08-27T02:47:15;14.93;;;12.33;;
2558;SDS011;1289;53.488;10.006;2022-08-27T02:49:42;13.57;;;11.03;;
2558;SDS011;1289;53.488;10.006;2022-08-27T02:52:11;17.93;;;10.80;;
2558;SDS011;1289;53.488;10.006;2022-08-27T02:54:38;18.23;;;12.83;;
2558;SDS011;1289;53.488;10.006;2022-08-27T02:57:04;16.90;;;13.20;;
2558;SDS011;1289;53.488;10.006;2022-08-27T02:59:31;15.67;;;11.70;;
2558;SDS011;1289;53.488;10.006;2022-08-27T03:01:58;16.90;;;11.10;;
2558;SDS011;1289;53.488;10.006;2022-08-27T03:04:25;18.50;;;12.40;;
2558;SDS011;1289;53.488;10.006;2022-08-27T03:06:52;22.07;;;12.97;;
2558;SDS011;1289;53.488;10.006;2022-08-27T03:09:21;15.93;;;12.67;;
2558;SDS011;1289;53.488;10.006;2022-08-27T03:11:47;16.60;;;11.80;;
2558;SDS011;1289;53.488;10.006;2022-08-27T03:14:14;20.20;;;11.73;;
2558;SDS011;1289;53.488;10.006;2022-08-27T03:16:41;18.27;;;12.03;;
2558;SDS011;1289;53.488;10.006;2022-08-27T03:19:08;23.67;;;12.80;;
2558;SDS011;1289;53.488;10.006;2022-08-27T03:21:35;14.70;;;13.13;;
2558;SDS011;1289;53.488;10.006;2022-08-27T03:24:02;16.97;;;12.60;;
2558;SDS011;1289;53.488;10.006;2022-08-27T03:26:31;18.93;;;11.73;;
2558;SDS011;1289;53.488;10.006;2022-08-27T03:28:58;15.20;;;11.67;;
2558;SDS011;1289;53.488;10.006;2022-08-27T03:31:25;21.07;;;12.90;;
2558;SDS011;1289;53.488;10.006;2022-08-27T03:33:54;15.43;;;12.07;;
2558;SDS011;1289;53.488;10.006;2022-08-27T03:36:21;15.70;;;11.73;;
2558;SDS011;1289;53.488;10.006;2022-08-27T03:38:49;13.43;;;11.17;;
2558;SDS011;1289;53.488;10.006;2022-08-27T03:41:16;18.70;;;13.30;;
2558;SDS011;1289;53.488;10.006;2022-08-27T03:43:45;17.53;;;10.77;;
2558;SDS011;1289;53.488;10.006;2022-08-27T03:46:12;14.60;;;11.03;;
2558;SDS011;1289;53.488;10.006;2022-08-27T03:48:39;13.77;;;10.77;;
2558;SDS011;1289;53.488;10.006;2022-08-27T03:51:07;11.20;;;10.00;;
2558;SDS011;1289;53.488;10.006;2022-08-27T03:53:36;13.63;;;11.10;;
2558;SDS011;1289;53.488;10.006;2022-08-27T03:56:04;12.13;;;10.00;;
2558;SDS011;1289;53.488;10.006;2022-08-27T03:58:32;13.93;;;11.37;;
2558;SDS011;1289;53.488;10.006;2022-08-27T04:01:00;15.67;;;11.87;;
2558;SDS011;1289;53.488;10.006;2022-08-27T04:03:27;14.20;;;11.10;;
2558;SDS011;1289;53.488;10.006;2022-08-27T04:05:54;16.20;;;13.00;;
2558;SDS011;1289;53.488;10.006;2022-08-27T04:08:21;17.90;;;12.70;;
2558;SDS011;1289;53.488;10.006;2022-08-27T04:10:49;17.27;;;12.73;;
2558;SDS011;1289;53.488;10.006;2022-08-27T04:13:16;25.17;;;12.27;;
2558;SDS011;1289;53.488;10.006;2022-08-27T04:15:45;19.47;;;13.50;;
2558;SDS011;1289;53.488;10.006;2022-08-27T04:18:14;24.43;;;14.10;;
2558;SDS011;1289;53.488;10.006;2022-08-27T04:20:42;20.93;;;13.67;;
2558;SDS011;1289;53.488;10.006;2022-08-27T04:23:08;18.80;;;13.30;;
2558;SDS011;1289;53.488;10.006;2022-08-27T04:25:37;17.40;;;13.27;;
2558;SDS011;1289;53.488;10.006;2022-08-27T04:28:05;16.30;;;13.43;;
2558;SDS011;1289;53.488;10.006;2022-08-27T04:30:32;24.30;;;14.90;;
2558;SDS011;1289;53.488;10.006;2022-08-27T04:32:58;15.23;;;13.63;;
2558;SDS011;1289;53.488;10.006;2022-08-27T04:35:26;15.60;;;12.20;;
2558;SDS011;1289;53.488;10.006;2022-08-27T04:37:53;14.90;;;11.47;;
2558;SDS011;1289;53.488;10.006;2022-08-27T04:40:20;20.57;;;13.03;;
2558;SDS011;1289;53.488;10.006;2022-08-27T04:42:46;17.07;;;12.30;;
2558;SDS011;1289;53.488;10.006;2022-08-27T04:45:13;17.30;;;11.53;;
2558;SDS011;1289;53.488;10.006;2022-08-27T04:47:40;15.60;;;13.30;;
2558;SDS011;1289;53.488;10.006;2022-08-27T04:50:07;16.13;;;10.90;;
2558;SDS011;1289;53.488;10.006;2022-08-27T04:52:35;14.30;;;11.10;;
2558;SDS011;1289;53.488;10.006;2022-08-27T04:55:02;14.00;;;10.40;;
2558;SDS011;1289;53.488;10.006;2022-08-27T04:57:29;17.97;;;11.80;;
2558;SDS011;1289;53.488;10.006;2022-08-27T04:59:57;15.73;;;12.07;;
2558;SDS011;1289;53.488;10.006;2022-08-27T05:02:24;12.80;;;9.90;;
2558;SDS011;1289;53.488;10.006;2022-08-27T05:04:51;19.77;;;11.83;;
2558;SDS011;1289;53.488;10.006;2022-08-27T05:07:17;15.80;;;11.23;;
2558;SDS011;1289;53.488;10.006;2022-08-27T05:09:45;16.87;;;10.43;;
2558;SDS011;1289;53.488;10.006;2022-08-27T05:12:12;15.27;;;10.80;;
2558;SDS011;1289;53.488;10.006;2022-08-27T05:14:39;16.13;;;11.27;;
2558;SDS011;1289;53.488;10.006;2022-08-27T05:17:06;15.10;;;11.07;;
2558;SDS011;1289;53.488;10.006;2022-08-27T05:19:33;16.07;;;10.63;;
2558;SDS011;1289;53.488;10.006;2022-08-27T05:21:59;19.23;;;13.47;;
2558;SDS011;1289;53.488;10.006;2022-08-27T05:24:26;18.17;;;13.07;;
2558;SDS011;1289;53.488;10.006;2022-08-27T05:26:54;17.50;;;12.27;;
2558;SDS011;1289;53.488;10.006;2022-08-27T05:29:20;12.57;;;11.20;;
2558;SDS011;1289;53.488;10.006;2022-08-27T05:31:48;18.70;;;11.00;;
2558;SDS011;1289;53.488;10.006;2022-08-27T05:34:15;15.00;;;10.90;;
2558;SDS011;1289;53.488;10.006;2022-08-27T05:36:42;14.53;;;11.50;;
2558;SDS011;1289;53.488;10.006;2022-08-27T05:39:09;16.83;;;11.47;;
2558;SDS011;1289;53.488;10.006;2022-08-27T05:41:36;17.10;;;11.30;;
2558;SDS011;1289;53.488;10.006;2022-08-27T05:44:06;18.40;;;12.67;;
2558;SDS011;1289;53.488;10.006;2022-08-27T05:46:36;15.40;;;11.40;;
2558;SDS011;1289;53.488;10.006;2022-08-27T05:49:03;20.20;;;12.63;;
2558;SDS011;1289;53.488;10.006;2022-08-27T05:51:31;16.40;;;11.90;;
2558;SDS011;1289;53.488;10.006;2022-08-27T05:54:00;13.67;;;11.20;;
2558;SDS011;1289;53.488;10.006;2022-08-27T05:56:28;17.17;;;11.40;;
2558;SDS011;1289;53.488;10.006;2022-08-27T05:58:55;15.20;;;10.57;;
2558;SDS011;1289;53.488;10.006;2022-08-27T06:01:42;11.50;;;9.33;;
2558;SDS011;1289;53.488;10.006;2022-08-27T06:04:10;11.30;;;9.33;;
2558;SDS011;1289;53.488;10.006;2022-08-27T06:06:38;15.93;;;9.17;;
2558;SDS011;1289;53.488;10.006;2022-08-27T06:09:06;11.53;;;9.73;;
2558;SDS011;1289;53.488;10.006;2022-08-27T06:11:34;11.10;;;9.30;;
2558;SDS011;1289;53.488;10.006;2022-08-27T06:14:01;12.40;;;9.40;;
2558;SDS011;1289;53.488;10.006;2022-08-27T06:16:28;13.10;;;9.87;;
2558;SDS011;1289;53.488;10.006;2022-08-27T06:18:56;14.67;;;10.33;;
2558;SDS011;1289;53.488;10.006;2022-08-27T06:21:23;10.27;;;7.93;;
2558;SDS011;1289;53.488;10.006;2022-08-27T06:23:50;13.53;;;9.03;;
2558;SDS011;1289;53.488;10.006;2022-08-27T06:26:18;14.10;;;10.27;;
2558;SDS011;1289;53.488;10.006;2022-08-27T06:28:45;18.50;;;12.20;;
2558;SDS011;1289;53.488;10.006;2022-08-27T06:31:13;14.43;;;11.33;;
2558;SDS011;1289;53.488;10.006;2022-08-27T06:33:41;24.20;;;13.80;;
2558;SDS011;1289;53.488;10.006;2022-08-27T06:36:12;15.80;;;11.53;;
2558;SDS011;1289;53.488;10.006;2022-08-27T06:38:40;14.90;;;12.50;;
2558;SDS011;1289;53.488;10.006;2022-08-27T06:41:10;15.80;;;12.00;;
2558;SDS011;1289;53.488;10.006;2022-08-27T06:43:38;16.43;;;12.17;;
2558;SDS011;1289;53.488;10.006;2022-08-27T06:46:07;13.00;;;11.40;;
2558;SDS011;1289;53.488;10.006;2022-08-27T06:48:35;20.90;;;14.03;;
2558;SDS011;1289;53.488;10.006;2022-08-27T06:51:05;16.00;;;10.97;;
2558;SDS011;1289;53.488;10.006;2022-08-27T06:53:34;15.47;;;11.20;;
2558;SDS011;1289;53.488;10.006;2022-08-27T06:56:01;15.60;;;11.10;;
2558;SDS011;1289;53.488;10.006;2022-08-27T06:58:29;13.30;;;10.40;;
2558;SDS011;1289;53.488;10.006;2022-08-27T07:00:57;15.60;;;10.80;;
2558;SDS011;1289;53.488;10.006;2022-08-27T07:03:24;12.47;;;9.33;;
2558;SDS011;1289;53.488;10.006;2022-08-27T07:05:50;14.90;;;10.80;;
2558;SDS011;1289;53.488;10.006;2022-08-27T07:08:17;17.03;;;12.27;;
2558;SDS011;1289;53.488;10.006;2022-08-27T07:10:45;15.60;;;9.83;;
2558;SDS011;1289;53.488;10.006;2022-08-27T07:13:11;11.70;;;10.23;;
2558;SDS011;1289;53.488;10.006;2022-08-27T07:15:38;15.83;;;10.43;;
2558;SDS011;1289;53.488;10.006;2022-08-27T07:18:05;15.33;;;11.83;;
2558;SDS011;1289;53.488;10.006;2022-08-27T07:20:32;17.50;;;11.30;;
2558;SDS011;1289;53.488;10.006;2022-08-27T07:22:59;14.23;;;11.63;;
2558;SDS011;1289;53.488;10.006;2022-08-27T07:25:25;19.40;;;11.93;;
2558;SDS011;1289;53.488;10.006;2022-08-27T07:27:53;14.50;;;11.50;;
2558;SDS011;1289;53.488;10.006;2022-08-27T07:30:20;16.10;;;10.60;;
2558;SDS011;1289;53.488;10.006;2022-08-27T07:32:47;15.37;;;10.70;;
2558;SDS011;1289;53.488;10.006;2022-08-27T07:35:14;15.50;;;12.30;;
2558;SDS011;1289;53.488;10.006;2022-08-27T07:37:40;18.10;;;12.60;;
2558;SDS011;1289;53.488;10.006;2022-08-27T07:40:08;11.30;;;9.73;;
2558;SDS011;1289;53.488;10.006;2022-08-27T07:42:36;14.43;;;10.60;;
2558;SDS011;1289;53.488;10.006;2022-08-27T07:45:22;17.70;;;11.60;;
2558;SDS011;1289;53.488;10.006;2022-08-27T07:47:49;15.17;;;10.27;;
2558;SDS011;1289;53.488;10.006;2022-08-27T07:50:15;13.83;;;10.30;;
2558;SDS011;1289;53.488;10.006;2022-08-27T07:52:42;14.53;;;9.03;;
2558;SDS011;1289;53.488;10.006;2022-08-27T07:55:09;12.07;;;10.07;;
2558;SDS011;1289;53.488;10.006;2022-08-27T07:57:36;13.73;;;10.30;;
2558;SDS011;1289;53.488;10.006;2022-08-27T08:00:03;14.90;;;9.77;;
2558;SDS011;1289;53.488;10.006;2022-08-27T08:02:39;12.70;;;10.87;;
2558;SDS011;1289;53.488;10.006;2022-08-27T08:05:08;15.40;;;10.07;;
2558;SDS011;1289;53.488;10.006;2022-08-27T08:07:37;16.70;;;10.30;;
2558;SDS011;1289;53.488;10.006;2022-08-27T08:10:04;12.57;;;9.47;;
2558;SDS011;1289;53.488;10.006;2022-08-27T08:12:31;17.90;;;11.20;;
2558;SDS011;1289;53.488;10.006;2022-08-27T08:15:00;16.23;;;11.13;;
2558;SDS011;1289;53.488;10.006;2022-08-27T08:17:27;11.93;;;10.37;;
2558;SDS011;1289;53.488;10.006;2022-08-27T08:19:56;12.07;;;9.70;;
2558;SDS011;1289;53.488;10.006;2022-08-27T08:22:22;13.00;;;11.13;;
2558;SDS011;1289;53.488;10.006;2022-08-27T08:24:49;15.00;;;11.70;;
2558;SDS011;1289;53.488;10.006;2022-08-27T08:27:16;11.23;;;9.83;;
2558;SDS011;1289;53.488;10.006;2022-08-27T08:29:43;18.00;;;10.50;;
2558;SDS011;1289;53.488;10.006;2022-08-27T08:32:10;16.80;;;10.70;;
2558;SDS011;1289;53.488;10.006;2022-08-27T08:34:37;23.57;;;14.90;;
2558;SDS011;1289;53.488;10.006;2022-08-27T08:37:05;20.43;;;11.53;;
2558;SDS011;1289;53.488;10.006;2022-08-27T08:39:32;17.30;;;12.00;;
2558;SDS011;1289;53.488;10.006;2022-08-27T08:42:00;11.87;;;10.50;;
2558;SDS011;1289;53.488;10.006;2022-08-27T08:44:30;14.00;;;10.90;;
2558;SDS011;1289;53.488;10.006;2022-08-27T08:47:01;23.90;;;10.47;;
2558;SDS011;1289;53.488;10.006;2022-08-27T08:49:31;13.20;;;9.50;;
2558;SDS011;1289;53.488;10.006;2022-08-27T08:52:09;13.27;;;9.97;;
2558;SDS011;1289;53.488;10.006;2022-08-27T08:54:41;13.23;;;10.27;;
2558;SDS011;1289;53.488;10.006;2022-08-27T08:57:12;9.93;;;8.50;;
2558;SDS011;1289;53.488;10.006;2022-08-27T08:59:43;14.50;;;9.43;;
2558;SDS011;1289;53.488;10.006;2022-08-27T09:02:13;16.50;;;10.93;;
2558;SDS011;1289;53.488;10.006;2022-08-27T09:04:40;12.30;;;9.40;;
2558;SDS011;1289;53.488;10.006;2022-08-27T09:07:11;14.23;;;9.20;;
2558;SDS011;1289;53.488;10.006;2022-08-27T09:09:42;11.30;;;9.10;;
2558;SDS011;1289;53.488;10.006;2022-08-27T09:12:14;14.53;;;9.97;;
2558;SDS011;1289;53.488;10.006;2022-08-27T09:14:47;11.13;;;9.30;;
2558;SDS011;1289;53.488;10.006;2022-08-27T09:17:15;22.40;;;10.83;;
2558;SDS011;1289;53.488;10.006;2022-08-27T09:19:42;13.87;;;9.60;;
2558;SDS011;1289;53.488;10.006;2022-08-27T09:22:12;12.43;;;9.30;;
2558;SDS011;1289;53.488;10.006;2022-08-27T09:24:46;16.13;;;9.30;;
2558;SDS011;1289;53.488;10.006;2022-08-27T09:27:18;13.80;;;10.17;;
2558;SDS011;1289;53.488;10.006;2022-08-27T09:29:46;14.60;;;9.00;;
2558;SDS011;1289;53.488;10.006;2022-08-27T09:32:14;11.60;;;8.17;;
2558;SDS011;1289;53.488;10.006;2022-08-27T09:34:41;11.27;;;8.07;;
2558;SDS011;1289;53.488;10.006;2022-08-27T09:37:12;10.50;;;8.40;;
2558;SDS011;1289;53.488;10.006;2022-08-27T09:39:44;14.37;;;9.30;;
2558;SDS011;1289;53.488;10.006;2022-08-27T09:42:26;16.40;;;10.20;;
2558;SDS011;1289;53.488;10.006;2022-08-27T09:44:55;16.33;;;9.73;;
2558;SDS011;1289;53.488;10.006;2022-08-27T09:47:22;15.50;;;9.50;;
2558;SDS011;1289;53.488;10.006;2022-08-27T09:49:59;10.70;;;8.83;;
2558;SDS011;1289;53.488;10.006;2022-08-27T09:52:30;12.40;;;8.60;;
2558;SDS011;1289;53.488;10.006;2022-08-27T09:54:59;9.60;;;8.00;;
2558;SDS011;1289;53.488;10.006;2022-08-27T09:57:29;9.67;;;8.00;;
2558;SDS011;1289;53.488;10.006;2022-08-27T09:59:58;12.43;;;8.40;;
2558;SDS011;1289;53.488;10.006;2022-08-27T10:02:26;11.23;;;9.00;;
2558;SDS011;1289;53.488;10.006;2022-08-27T10:04:53;16.07;;;8.30;;
2558;SDS011;1289;53.488;10.006;2022-08-27T10:07:30;12.83;;;8.43;;
2558;SDS011;1289;53.488;10.006;2022-08-27T10:10:04;16.03;;;8.30;;
2558;SDS011;1289;53.488;10.006;2022-08-27T10:12:40;12.03;;;8.80;;
2558;SDS011;1289;53.488;10.006;2022-08-27T10:15:12;12.73;;;8.67;;
2558;SDS011;1289;53.488;10.006;2022-08-27T10:17:43;11.67;;;9.87;;
2558;SDS011;1289;53.488;10.006;2022-08-27T10:20:14;15.00;;;8.60;;
2558;SDS011;1289;53.488;10.006;2022-08-27T10:22:48;12.23;;;9.23;;
2558;SDS011;1289;53.488;10.006;2022-08-27T10:25:22;12.27;;;9.00;;
2558;SDS011;1289;53.488;10.006;2022-08-27T10:27:57;12.63;;;9.03;;
2558;SDS011;1289;53.488;10.006;2022-08-27T10:30:38;12.17;;;7.60;;
2558;SDS011;1289;53.488;10.006;2022-08-27T10:33:16;11.93;;;8.43;;
2558;SDS011;1289;53.488;10.006;2022-08-27T10:35:48;13.60;;;9.23;;
2558;SDS011;1289;53.488;10.006;2022-08-27T10:38:20;13.90;;;9.67;;
2558;SDS011;1289;53.488;10.006;2022-08-27T10:40:50;12.83;;;9.17;;
2558;SDS011;1289;53.488;10.006;2022-08-27T10:43:34;9.97;;;8.80;;
2558;SDS011;1289;53.488;10.006;2022-08-27T10:46:17;17.17;;;8.70;;
2558;SDS011;1289;53.488;10.006;2022-08-27T10:48:55;10.30;;;8.43;;
2558;SDS011;1289;53.488;10.006;2022-08-27T10:51:28;11.00;;;8.30;;
2558;SDS011;1289;53.488;10.006;2022-08-27T10:53:59;14.20;;;9.67;;
2558;SDS011;1289;53.488;10.006;2022-08-27T10:56:32;14.33;;;9.60;;
2558;SDS011;1289;53.488;10.006;2022-08-27T10:59:04;13.33;;;8.60;;
2558;SDS011;1289;53.488;10.006;2022-08-27T11:01:37;12.20;;;7.43;;
2558;SDS011;1289;53.488;10.006;2022-08-27T11:04:08;11.37;;;9.20;;
2558;SDS011;1289;53.488;10.006;2022-08-27T11:06:39;18.30;;;8.67;;
2558;SDS011;1289;53.488;10.006;2022-08-27T11:09:11;13.60;;;8.50;;
2558;SDS011;1289;53.488;10.006;2022-08-27T11:11:41;10.80;;;7.20;;
2558;SDS011;1289;53.488;10.006;2022-08-27T11:14:12;9.03;;;6.50;;
2558;SDS011;1289;53.488;10.006;2022-08-27T11:16:46;10.97;;;6.73;;
2558;SDS011;1289;53.488;10.006;2022-08-27T11:19:16;12.03;;;7.23;;
2558;SDS011;1289;53.488;10.006;2022-08-27T11:21:59;8.70;;;7.10;;
2558;SDS011;1289;53.488;10.006;2022-08-27T11:24:33;8.90;;;6.90;;
2558;SDS011;1289;53.488;10.006;2022-08-27T11:27:04;11.33;;;8.03;;
2558;SDS011;1289;53.488;10.006;2022-08-27T11:29:32;12.23;;;7.50;;
2558;SDS011;1289;53.488;10.006;2022-08-27T11:32:02;9.20;;;7.23;;
2558;SDS011;1289;53.488;10.006;2022-08-27T11:34:33;11.17;;;6.63;;
2558;SDS011;1289;53.488;10.006;2022-08-27T11:37:06;10.83;;;7.43;;
2558;SDS011;1289;53.488;10.006;2022-08-27T11:39:52;9.30;;;7.10;;
2558;SDS011;1289;53.488;10.006;2022-08-27T11:42:32;11.30;;;7.30;;
2558;SDS011;1289;53.488;10.006;2022-08-27T11:45:03;15.17;;;8.13;;
2558;SDS011;1289;53.488;10.006;2022-08-27T11:47:32;8.87;;;7.03;;
2558;SDS011;1289;53.488;10.006;2022-08-27T11:49:59;9.13;;;6.37;;
2558;SDS011;1289;53.488;10.006;2022-08-27T11:52:28;9.00;;;6.00;;
2558;SDS011;1289;53.488;10.006;2022-08-27T11:55:10;8.83;;;5.23;;
2558;SDS011;1289;53.488;10.006;2022-08-27T11:57:39;8.27;;;5.00;;
2558;SDS011;1289;53.488;10.006;2022-08-27T12:00:12;17.93;;;5.17;;
2558;SDS011;1289;53.488;10.006;2022-08-27T12:02:42;10.57;;;5.53;;
2558;SDS011;1289;53.488;10.006;2022-08-27T12:05:19;8.33;;;4.67;;
2558;SDS011;1289;53.488;10.006;2022-08-27T12:07:48;5.97;;;5.23;;
2558;SDS011;1289;53.488;10.006;2022-08-27T12:10:23;7.80;;;5.07;;
2558;SDS011;1289;53.488;10.006;2022-08-27T12:12:56;10.00;;;5.80;;
2558;SDS011;1289;53.488;10.006;2022-08-27T12:15:31;7.67;;;5.00;;
2558;SDS011;1289;53.488;10.006;2022-08-27T12:18:14;10.60;;;4.90;;
2558;SDS011;1289;53.488;10.006;2022-08-27T12:21:04;6.50;;;4.30;;
2558;SDS011;1289;53.488;10.006;2022-08-27T12:23:40;7.60;;;4.93;;
2558;SDS011;1289;53.488;10.006;2022-08-27T12:26:17;6.90;;;4.57;;
2558;SDS011;1289;53.488;10.006;2022-08-27T12:28:52;8.03;;;5.10;;
2558;SDS011;1289;53.488;10.006;2022-08-27T12:31:41;7.40;;;4.57;;
2558;SDS011;1289;53.488;10.006;2022-08-27T12:34:12;6.23;;;4.53;;
2558;SDS011;1289;53.488;10.006;2022-08-27T12:36:40;5.57;;;4.20;;
2558;SDS011;1289;53.488;10.006;2022-08-27T12:39:10;6.03;;;3.77;;
2558;SDS011;1289;53.488;10.006;2022-08-27T12:41:39;4.53;;;4.13;;
2558;SDS011;1289;53.488;10.006;2022-08-27T12:44:11;6.00;;;4.10;;
2558;SDS011;1289;53.488;10.006;2022-08-27T12:46:43;6.67;;;4.17;;
2558;SDS011;1289;53.488;10.006;2022-08-27T12:49:11;8.30;;;4.53;;
2558;SDS011;1289;53.488;10.006;2022-08-27T12:51:43;4.83;;;4.00;;
2558;SDS011;1289;53.488;10.006;2022-08-27T12:54:11;6.97;;;3.90;;
2558;SDS011;1289;53.488;10.006;2022-08-27T12:56:50;7.77;;;4.00;;
2558;SDS011;1289;53.488;10.006;2022-08-27T12:59:29;6.37;;;4.13;;
2558;SDS011;1289;53.488;10.006;2022-08-27T13:02:08;4.17;;;3.40;;
2558;SDS011;1289;53.488;10.006;2022-08-27T13:04:41;7.37;;;4.00;;
2558;SDS011;1289;53.488;10.006;2022-08-27T13:07:08;12.27;;;3.73;;
2558;SDS011;1289;53.488;10.006;2022-08-27T13:09:35;9.80;;;4.60;;
2558;SDS011;1289;53.488;10.006;2022-08-27T13:12:06;12.63;;;4.37;;
2558;SDS011;1289;53.488;10.006;2022-08-27T13:14:41;7.23;;;3.77;;
2558;SDS011;1289;53.488;10.006;2022-08-27T13:17:09;5.87;;;4.20;;
2558;SDS011;1289;53.488;10.006;2022-08-27T13:19:42;6.17;;;4.40;;
2558;SDS011;1289;53.488;10.006;2022-08-27T13:22:19;7.13;;;4.20;;
2558;SDS011;1289;53.488;10.006;2022-08-27T13:24:47;5.33;;;4.10;;
2558;SDS011;1289;53.488;10.006;2022-08-27T13:27:21;7.83;;;4.30;;
2558;SDS011;1289;53.488;10.006;2022-08-27T13:29:49;5.57;;;4.30;;
2558;SDS011;1289;53.488;10.006;2022-08-27T13:32:16;8.50;;;3.70;;
2558;SDS011;1289;53.488;10.006;2022-08-27T13:34:43;5.97;;;4.00;;
2558;SDS011;1289;53.488;10.006;2022-08-27T13:37:19;7.87;;;4.27;;
2558;SDS011;1289;53.488;10.006;2022-08-27T13:39:50;5.90;;;3.80;;
2558;SDS011;1289;53.488;10.006;2022-08-27T13:42:19;6.20;;;3.80;;
2558;SDS011;1289;53.488;10.006;2022-08-27T13:44:49;6.50;;;3.70;;
2558;SDS011;1289;53.488;10.006;2022-08-27T13:47:19;4.17;;;3.50;;
2558;SDS011;1289;53.488;10.006;2022-08-27T13:49:47;4.70;;;3.90;;
2558;SDS011;1289;53.488;10.006;2022-08-27T13:52:19;5.53;;;3.67;;
2558;SDS011;1289;53.488;10.006;2022-08-27T13:54:50;4.47;;;3.80;;
2558;SDS011;1289;53.488;10.006;2022-08-27T13:57:26;5.53;;;3.40;;
2558;SDS011;1289;53.488;10.006;2022-08-27T13:59:55;5.10;;;3.20;;
2558;SDS011;1289;53.488;10.006;2022-08-27T14:02:33;3.50;;;2.93;;
2558;SDS011;1289;53.488;10.006;2022-08-27T14:05:05;5.10;;;3.30;;
2558;SDS011;1289;53.488;10.006;2022-08-27T14:07:36;5.30;;;4.13;;
2558;SDS011;1289;53.488;10.006;2022-08-27T14:10:06;4.67;;;3.27;;
2558;SDS011;1289;53.488;10.006;2022-08-27T14:12:46;7.30;;;3.70;;
2558;SDS011;1289;53.488;10.006;2022-08-27T14:15:22;5.63;;;3.50;;
2558;SDS011;1289;53.488;10.006;2022-08-27T14:17:50;6.60;;;3.07;;
2558;SDS011;1289;53.488;10.006;2022-08-27T14:20:17;5.60;;;2.97;;
2558;SDS011;1289;53.488;10.006;2022-08-27T14:22:45;4.13;;;3.40;;
2558;SDS011;1289;53.488;10.006;2022-08-27T14:25:12;6.60;;;3.00;;
2558;SDS011;1289;53.488;10.006;2022-08-27T14:27:39;3.77;;;2.63;;
2558;SDS011;1289;53.488;10.006;2022-08-27T14:30:08;6.47;;;3.77;;
2558;SDS011;1289;53.488;10.006;2022-08-27T14:32:36;3.83;;;3.30;;
2558;SDS011;1289;53.488;10.006;2022-08-27T14:35:04;6.40;;;3.20;;
2558;SDS011;1289;53.488;10.006;2022-08-27T14:37:31;6.00;;;3.40;;
2558;SDS011;1289;53.488;10.006;2022-08-27T14:39:58;3.53;;;2.90;;
2558;SDS011;1289;53.488;10.006;2022-08-27T14:42:24;6.40;;;3.20;;
2558;SDS011;1289;53.488;10.006;2022-08-27T14:44:51;3.70;;;2.93;;
2558;SDS011;1289;53.488;10.006;2022-08-27T14:47:19;9.50;;;3.17;;
2558;SDS011;1289;53.488;10.006;2022-08-27T14:49:46;4.80;;;3.53;;
2558;SDS011;1289;53.488;10.006;2022-08-27T14:52:13;3.90;;;3.27;;
2558;SDS011;1289;53.488;10.006;2022-08-27T14:54:40;6.83;;;2.90;;
2558;SDS011;1289;53.488;10.006;2022-08-27T14:57:08;3.03;;;2.73;;